sensor_id;sensor_type;location;lat;lon;timestamp;P1;durP1;ratioP1;P2;durP2;ratioP2
4726;SDS011;2377;51.734;8.950;2022-10-16T00:01:18;4.37;;;3.20;;
4726;SDS011;2377;51.734;8.950;2022-10-16T00:03:48;5.10;;;3.00;;
4726;SDS011;2377;51.734;8.950;2022-10-16T00:06:17;5.23;;;2.30;;
4726;SDS011;2377;51.734;8.950;2022-10-16T00:08:46;5.13;;;2.70;;
4726;SDS011;2377;51.734;8.950;2022-10-16T00:11:17;4.10;;;2.50;;
4726;SDS011;2377;51.734;8.950;2022-10-16T00:13:47;4.70;;;2.63;;
4726;SDS011;2377;51.734;8.950;2022-10-16T00:16:17;5.73;;;3.00;;
4726;SDS011;2377;51.734;8.950;2022-10-16T00:18:44;4.67;;;2.47;;
4726;SDS011;2377;51.734;8.950;2022-10-16T00:21:13;4.37;;;2.93;;
4726;SDS011;2377;51.734;8.950;2022-10-16T00:23:43;4.07;;;2.90;;
4726;SDS011;2377;51.734;8.950;2022-10-16T00:26:13;5.83;;;2.57;;
4726;SDS011;2377;51.734;8.950;2022-10-16T00:28:45;5.37;;;3.63;;
4726;SDS011;2377;51.734;8.950;2022-10-16T00:31:13;4.80;;;3.17;;
4726;SDS011;2377;51.734;8.950;2022-10-16T00:33:42;7.30;;;3.40;;
4726;SDS011;2377;51.734;8.950;2022-10-16T00:36:12;5.70;;;2.83;;
4726;SDS011;2377;51.734;8.950;2022-10-16T00:38:43;5.60;;;2.60;;
4726;SDS011;2377;51.734;8.950;2022-10-16T00:41:12;4.40;;;2.60;;
4726;SDS011;2377;51.734;8.950;2022-10-16T00:43:44;5.07;;;2.43;;
4726;SDS011;2377;51.734;8.950;2022-10-16T00:46:16;3.70;;;2.50;;
4726;SDS011;2377;51.734;8.950;2022-10-16T00:48:48;3.80;;;2.10;;
4726;SDS011;2377;51.734;8.950;2022-10-16T00:51:21;4.27;;;2.23;;
4726;SDS011;2377;51.734;8.950;2022-10-16T00:53:54;3.33;;;2.03;;
4726;SDS011;2377;51.734;8.950;2022-10-16T00:56:23;5.57;;;2.40;;
4726;SDS011;2377;51.734;8.950;2022-10-16T00:58:51;3.60;;;2.27;;
4726;SDS011;2377;51.734;8.950;2022-10-16T01:01:18;3.33;;;2.00;;
4726;SDS011;2377;51.734;8.950;2022-10-16T01:03:45;5.73;;;2.60;;
4726;SDS011;2377;51.734;8.950;2022-10-16T01:06:21;4.73;;;2.77;;
4726;SDS011;2377;51.734;8.950;2022-10-16T01:09:03;4.70;;;2.50;;
4726;SDS011;2377;51.734;8.950;2022-10-16T01:11:48;3.60;;;2.47;;
4726;SDS011;2377;51.734;8.950;2022-10-16T01:14:30;4.50;;;2.10;;
4726;SDS011;2377;51.734;8.950;2022-10-16T01:17:10;6.63;;;2.17;;
4726;SDS011;2377;51.734;8.950;2022-10-16T01:19:52;5.60;;;2.60;;
4726;SDS011;2377;51.734;8.950;2022-10-16T01:22:37;4.20;;;2.70;;
4726;SDS011;2377;51.734;8.950;2022-10-16T01:25:16;4.23;;;2.33;;
4726;SDS011;2377;51.734;8.950;2022-10-16T01:27:56;5.43;;;2.80;;
4726;SDS011;2377;51.734;8.950;2022-10-16T01:30:28;5.03;;;2.00;;
4726;SDS011;2377;51.734;8.950;2022-10-16T01:33:00;5.17;;;2.50;;
4726;SDS011;2377;51.734;8.950;2022-10-16T01:35:36;6.13;;;2.97;;
4726;SDS011;2377;51.734;8.950;2022-10-16T01:38:10;5.60;;;2.93;;
4726;SDS011;2377;51.734;8.950;2022-10-16T01:40:45;6.93;;;3.77;;
4726;SDS011;2377;51.734;8.950;2022-10-16T01:43:20;9.43;;;4.10;;
4726;SDS011;2377;51.734;8.950;2022-10-16T01:45:53;6.40;;;4.20;;
4726;SDS011;2377;51.734;8.950;2022-10-16T01:48:21;4.27;;;3.13;;
4726;SDS011;2377;51.734;8.950;2022-10-16T01:50:52;6.07;;;4.20;;
4726;SDS011;2377;51.734;8.950;2022-10-16T01:53:27;13.20;;;5.00;;
4726;SDS011;2377;51.734;8.950;2022-10-16T01:55:55;7.57;;;3.80;;
4726;SDS011;2377;51.734;8.950;2022-10-16T01:58:27;6.00;;;4.03;;
4726;SDS011;2377;51.734;8.950;2022-10-16T02:01:01;5.20;;;3.23;;
4726;SDS011;2377;51.734;8.950;2022-10-16T02:03:30;5.20;;;3.27;;
4726;SDS011;2377;51.734;8.950;2022-10-16T02:06:00;5.13;;;3.40;;
4726;SDS011;2377;51.734;8.950;2022-10-16T02:08:28;8.67;;;4.20;;
4726;SDS011;2377;51.734;8.950;2022-10-16T02:10:56;6.53;;;3.63;;
4726;SDS011;2377;51.734;8.950;2022-10-16T02:13:29;5.33;;;3.50;;
4726;SDS011;2377;51.734;8.950;2022-10-16T02:16:01;3.63;;;2.87;;
4726;SDS011;2377;51.734;8.950;2022-10-16T02:18:29;4.37;;;3.20;;
4726;SDS011;2377;51.734;8.950;2022-10-16T02:20:57;5.60;;;3.07;;
4726;SDS011;2377;51.734;8.950;2022-10-16T02:23:42;6.93;;;2.97;;
4726;SDS011;2377;51.734;8.950;2022-10-16T02:26:22;5.30;;;3.20;;
4726;SDS011;2377;51.734;8.950;2022-10-16T02:28:59;5.70;;;3.40;;
4726;SDS011;2377;51.734;8.950;2022-10-16T02:31:33;5.23;;;3.70;;
4726;SDS011;2377;51.734;8.950;2022-10-16T02:34:06;7.43;;;3.07;;
4726;SDS011;2377;51.734;8.950;2022-10-16T02:36:36;12.33;;;3.00;;
4726;SDS011;2377;51.734;8.950;2022-10-16T02:39:05;6.40;;;3.63;;
4726;SDS011;2377;51.734;8.950;2022-10-16T02:41:34;5.77;;;3.00;;
4726;SDS011;2377;51.734;8.950;2022-10-16T02:44:04;6.93;;;3.50;;
4726;SDS011;2377;51.734;8.950;2022-10-16T02:46:31;4.57;;;2.97;;
4726;SDS011;2377;51.734;8.950;2022-10-16T02:48:58;6.70;;;2.90;;
4726;SDS011;2377;51.734;8.950;2022-10-16T02:51:25;3.53;;;3.03;;
4726;SDS011;2377;51.734;8.950;2022-10-16T02:53:52;6.67;;;2.77;;
4726;SDS011;2377;51.734;8.950;2022-10-16T02:56:19;11.60;;;3.20;;
4726;SDS011;2377;51.734;8.950;2022-10-16T02:58:46;4.13;;;2.80;;
4726;SDS011;2377;51.734;8.950;2022-10-16T03:01:15;6.90;;;3.00;;
4726;SDS011;2377;51.734;8.950;2022-10-16T03:03:42;6.87;;;3.27;;
4726;SDS011;2377;51.734;8.950;2022-10-16T03:06:09;4.20;;;2.57;;
4726;SDS011;2377;51.734;8.950;2022-10-16T03:08:36;4.43;;;2.50;;
4726;SDS011;2377;51.734;8.950;2022-10-16T03:11:03;4.40;;;2.60;;
4726;SDS011;2377;51.734;8.950;2022-10-16T03:13:31;4.50;;;2.60;;
4726;SDS011;2377;51.734;8.950;2022-10-16T03:15:58;3.67;;;2.63;;
4726;SDS011;2377;51.734;8.950;2022-10-16T03:18:26;7.30;;;2.87;;
4726;SDS011;2377;51.734;8.950;2022-10-16T03:20:53;3.33;;;2.37;;
4726;SDS011;2377;51.734;8.950;2022-10-16T03:23:20;3.87;;;2.73;;
4726;SDS011;2377;51.734;8.950;2022-10-16T03:25:47;3.57;;;2.57;;
4726;SDS011;2377;51.734;8.950;2022-10-16T03:28:14;5.50;;;3.20;;
4726;SDS011;2377;51.734;8.950;2022-10-16T03:30:42;7.23;;;3.00;;
4726;SDS011;2377;51.734;8.950;2022-10-16T03:33:09;4.73;;;2.83;;
4726;SDS011;2377;51.734;8.950;2022-10-16T03:35:38;7.20;;;3.10;;
4726;SDS011;2377;51.734;8.950;2022-10-16T03:38:05;4.50;;;2.90;;
4726;SDS011;2377;51.734;8.950;2022-10-16T03:40:32;5.13;;;2.57;;
4726;SDS011;2377;51.734;8.950;2022-10-16T03:42:59;5.97;;;2.77;;
4726;SDS011;2377;51.734;8.950;2022-10-16T03:45:26;7.93;;;2.80;;
4726;SDS011;2377;51.734;8.950;2022-10-16T03:47:53;5.67;;;2.73;;
4726;SDS011;2377;51.734;8.950;2022-10-16T03:50:20;6.37;;;2.47;;
4726;SDS011;2377;51.734;8.950;2022-10-16T03:52:48;5.00;;;2.60;;
4726;SDS011;2377;51.734;8.950;2022-10-16T03:55:15;3.50;;;2.40;;
4726;SDS011;2377;51.734;8.950;2022-10-16T03:57:42;8.90;;;2.40;;
4726;SDS011;2377;51.734;8.950;2022-10-16T04:00:10;3.13;;;2.10;;
4726;SDS011;2377;51.734;8.950;2022-10-16T04:02:38;4.10;;;2.80;;
4726;SDS011;2377;51.734;8.950;2022-10-16T04:05:06;3.63;;;2.63;;
4726;SDS011;2377;51.734;8.950;2022-10-16T04:07:34;3.37;;;2.40;;
4726;SDS011;2377;51.734;8.950;2022-10-16T04:10:02;5.53;;;2.67;;
4726;SDS011;2377;51.734;8.950;2022-10-16T04:12:32;3.37;;;2.20;;
4726;SDS011;2377;51.734;8.950;2022-10-16T04:14:59;4.70;;;2.23;;
4726;SDS011;2377;51.734;8.950;2022-10-16T04:17:26;2.90;;;2.20;;
4726;SDS011;2377;51.734;8.950;2022-10-16T04:19:53;4.00;;;2.17;;
4726;SDS011;2377;51.734;8.950;2022-10-16T04:22:20;6.00;;;2.30;;
4726;SDS011;2377;51.734;8.950;2022-10-16T04:24:47;3.50;;;2.20;;
4726;SDS011;2377;51.734;8.950;2022-10-16T04:27:15;2.80;;;2.00;;
4726;SDS011;2377;51.734;8.950;2022-10-16T04:29:42;4.00;;;1.80;;
4726;SDS011;2377;51.734;8.950;2022-10-16T04:32:09;3.67;;;1.80;;
4726;SDS011;2377;51.734;8.950;2022-10-16T04:34:38;7.10;;;2.20;;
4726;SDS011;2377;51.734;8.950;2022-10-16T04:37:06;3.00;;;2.10;;
4726;SDS011;2377;51.734;8.950;2022-10-16T04:39:33;2.80;;;1.70;;
4726;SDS011;2377;51.734;8.950;2022-10-16T04:42:00;4.77;;;1.83;;
4726;SDS011;2377;51.734;8.950;2022-10-16T04:44:29;4.37;;;1.97;;
4726;SDS011;2377;51.734;8.950;2022-10-16T04:46:56;3.30;;;1.80;;
4726;SDS011;2377;51.734;8.950;2022-10-16T04:49:23;3.30;;;2.07;;
4726;SDS011;2377;51.734;8.950;2022-10-16T04:51:50;3.30;;;1.90;;
4726;SDS011;2377;51.734;8.950;2022-10-16T04:54:17;3.20;;;1.80;;
4726;SDS011;2377;51.734;8.950;2022-10-16T04:56:44;2.80;;;1.83;;
4726;SDS011;2377;51.734;8.950;2022-10-16T04:59:13;2.80;;;1.90;;
4726;SDS011;2377;51.734;8.950;2022-10-16T05:01:42;3.30;;;1.93;;
4726;SDS011;2377;51.734;8.950;2022-10-16T05:04:10;2.83;;;1.73;;
4726;SDS011;2377;51.734;8.950;2022-10-16T05:06:39;4.10;;;1.77;;
4726;SDS011;2377;51.734;8.950;2022-10-16T05:09:07;5.43;;;1.77;;
4726;SDS011;2377;51.734;8.950;2022-10-16T05:11:35;2.90;;;1.70;;
4726;SDS011;2377;51.734;8.950;2022-10-16T05:14:02;3.40;;;1.60;;
4726;SDS011;2377;51.734;8.950;2022-10-16T05:16:29;2.40;;;1.50;;
4726;SDS011;2377;51.734;8.950;2022-10-16T05:18:58;3.27;;;1.93;;
4726;SDS011;2377;51.734;8.950;2022-10-16T05:21:25;2.33;;;1.80;;
4726;SDS011;2377;51.734;8.950;2022-10-16T05:23:52;2.50;;;1.90;;
4726;SDS011;2377;51.734;8.950;2022-10-16T05:26:20;2.93;;;1.60;;
4726;SDS011;2377;51.734;8.950;2022-10-16T05:28:47;2.60;;;1.90;;
4726;SDS011;2377;51.734;8.950;2022-10-16T05:31:16;2.40;;;1.70;;
4726;SDS011;2377;51.734;8.950;2022-10-16T05:33:43;3.07;;;1.57;;
4726;SDS011;2377;51.734;8.950;2022-10-16T05:36:11;2.80;;;1.77;;
4726;SDS011;2377;51.734;8.950;2022-10-16T05:38:39;3.10;;;1.63;;
4726;SDS011;2377;51.734;8.950;2022-10-16T05:41:06;3.17;;;1.60;;
4726;SDS011;2377;51.734;8.950;2022-10-16T05:43:33;3.80;;;1.40;;
4726;SDS011;2377;51.734;8.950;2022-10-16T05:46:00;2.40;;;1.50;;
4726;SDS011;2377;51.734;8.950;2022-10-16T05:48:30;3.37;;;1.70;;
4726;SDS011;2377;51.734;8.950;2022-10-16T05:50:58;2.80;;;1.67;;
4726;SDS011;2377;51.734;8.950;2022-10-16T05:53:29;2.70;;;1.90;;
4726;SDS011;2377;51.734;8.950;2022-10-16T05:55:58;3.63;;;2.00;;
4726;SDS011;2377;51.734;8.950;2022-10-16T05:58:28;4.63;;;1.80;;
4726;SDS011;2377;51.734;8.950;2022-10-16T06:00:57;3.00;;;1.70;;
4726;SDS011;2377;51.734;8.950;2022-10-16T06:03:27;4.30;;;1.70;;
4726;SDS011;2377;51.734;8.950;2022-10-16T06:05:55;3.50;;;2.00;;
4726;SDS011;2377;51.734;8.950;2022-10-16T06:08:22;2.60;;;1.50;;
4726;SDS011;2377;51.734;8.950;2022-10-16T06:11:01;4.20;;;2.10;;
4726;SDS011;2377;51.734;8.950;2022-10-16T06:13:29;3.03;;;1.90;;
4726;SDS011;2377;51.734;8.950;2022-10-16T06:15:56;3.90;;;1.97;;
4726;SDS011;2377;51.734;8.950;2022-10-16T06:18:25;2.77;;;2.07;;
4726;SDS011;2377;51.734;8.950;2022-10-16T06:20:52;3.33;;;1.90;;
4726;SDS011;2377;51.734;8.950;2022-10-16T06:23:20;10.43;;;2.10;;
4726;SDS011;2377;51.734;8.950;2022-10-16T06:25:48;3.70;;;1.77;;
4726;SDS011;2377;51.734;8.950;2022-10-16T06:28:16;3.30;;;2.00;;
4726;SDS011;2377;51.734;8.950;2022-10-16T06:30:43;6.73;;;2.53;;
4726;SDS011;2377;51.734;8.950;2022-10-16T06:33:11;3.67;;;2.20;;
4726;SDS011;2377;51.734;8.950;2022-10-16T06:35:38;3.37;;;1.97;;
4726;SDS011;2377;51.734;8.950;2022-10-16T06:38:05;2.87;;;2.00;;
4726;SDS011;2377;51.734;8.950;2022-10-16T06:40:32;4.40;;;1.90;;
4726;SDS011;2377;51.734;8.950;2022-10-16T06:42:59;3.90;;;1.97;;
4726;SDS011;2377;51.734;8.950;2022-10-16T06:45:28;3.60;;;2.10;;
4726;SDS011;2377;51.734;8.950;2022-10-16T06:47:55;3.23;;;1.93;;
4726;SDS011;2377;51.734;8.950;2022-10-16T06:50:22;3.87;;;2.00;;
4726;SDS011;2377;51.734;8.950;2022-10-16T06:52:49;2.93;;;2.10;;
4726;SDS011;2377;51.734;8.950;2022-10-16T06:55:16;2.90;;;2.10;;
4726;SDS011;2377;51.734;8.950;2022-10-16T06:57:43;3.90;;;2.03;;
4726;SDS011;2377;51.734;8.950;2022-10-16T07:00:13;9.03;;;2.67;;
4726;SDS011;2377;51.734;8.950;2022-10-16T07:02:41;3.30;;;2.27;;
4726;SDS011;2377;51.734;8.950;2022-10-16T07:05:08;3.60;;;2.30;;
4726;SDS011;2377;51.734;8.950;2022-10-16T07:07:35;3.00;;;2.13;;
4726;SDS011;2377;51.734;8.950;2022-10-16T07:10:03;5.13;;;2.03;;
4726;SDS011;2377;51.734;8.950;2022-10-16T07:12:31;3.20;;;2.33;;
4726;SDS011;2377;51.734;8.950;2022-10-16T07:14:58;4.77;;;2.30;;
4726;SDS011;2377;51.734;8.950;2022-10-16T07:17:25;3.30;;;2.17;;
4726;SDS011;2377;51.734;8.950;2022-10-16T07:19:53;4.00;;;2.00;;
4726;SDS011;2377;51.734;8.950;2022-10-16T07:22:20;6.70;;;2.47;;
4726;SDS011;2377;51.734;8.950;2022-10-16T07:24:47;4.17;;;2.30;;
4726;SDS011;2377;51.734;8.950;2022-10-16T07:27:16;3.73;;;2.00;;
4726;SDS011;2377;51.734;8.950;2022-10-16T07:29:43;2.80;;;1.83;;
4726;SDS011;2377;51.734;8.950;2022-10-16T07:32:10;2.80;;;1.83;;
4726;SDS011;2377;51.734;8.950;2022-10-16T07:34:38;3.40;;;2.33;;
4726;SDS011;2377;51.734;8.950;2022-10-16T07:37:06;3.07;;;1.67;;
4726;SDS011;2377;51.734;8.950;2022-10-16T07:39:33;4.57;;;1.90;;
4726;SDS011;2377;51.734;8.950;2022-10-16T07:42:00;2.40;;;1.87;;
4726;SDS011;2377;51.734;8.950;2022-10-16T07:44:27;2.80;;;1.77;;
4726;SDS011;2377;51.734;8.950;2022-10-16T07:46:54;3.20;;;1.80;;
4726;SDS011;2377;51.734;8.950;2022-10-16T07:49:22;2.90;;;1.93;;
4726;SDS011;2377;51.734;8.950;2022-10-16T07:51:49;3.23;;;2.07;;
4726;SDS011;2377;51.734;8.950;2022-10-16T07:54:18;3.73;;;1.60;;
4726;SDS011;2377;51.734;8.950;2022-10-16T07:56:45;5.13;;;1.60;;
4726;SDS011;2377;51.734;8.950;2022-10-16T07:59:12;3.23;;;1.87;;
4726;SDS011;2377;51.734;8.950;2022-10-16T08:01:39;2.23;;;1.47;;
4726;SDS011;2377;51.734;8.950;2022-10-16T08:04:08;2.80;;;1.50;;
4726;SDS011;2377;51.734;8.950;2022-10-16T08:06:36;5.77;;;1.63;;
4726;SDS011;2377;51.734;8.950;2022-10-16T08:09:05;7.33;;;1.60;;
4726;SDS011;2377;51.734;8.950;2022-10-16T08:11:34;2.93;;;1.57;;
4726;SDS011;2377;51.734;8.950;2022-10-16T08:14:02;6.67;;;1.70;;
4726;SDS011;2377;51.734;8.950;2022-10-16T08:16:29;4.00;;;1.50;;
4726;SDS011;2377;51.734;8.950;2022-10-16T08:18:56;3.20;;;1.57;;
4726;SDS011;2377;51.734;8.950;2022-10-16T08:21:23;3.13;;;1.70;;
4726;SDS011;2377;51.734;8.950;2022-10-16T08:23:50;3.80;;;1.60;;
4726;SDS011;2377;51.734;8.950;2022-10-16T08:26:19;2.73;;;1.50;;
4726;SDS011;2377;51.734;8.950;2022-10-16T08:28:50;2.63;;;1.57;;
4726;SDS011;2377;51.734;8.950;2022-10-16T08:31:17;3.50;;;1.40;;
4726;SDS011;2377;51.734;8.950;2022-10-16T08:33:45;2.50;;;1.30;;
4726;SDS011;2377;51.734;8.950;2022-10-16T08:36:13;2.70;;;1.30;;
4726;SDS011;2377;51.734;8.950;2022-10-16T08:38:41;3.17;;;1.90;;
4726;SDS011;2377;51.734;8.950;2022-10-16T08:41:14;2.83;;;1.30;;
4726;SDS011;2377;51.734;8.950;2022-10-16T08:44:11;2.80;;;1.40;;
4726;SDS011;2377;51.734;8.950;2022-10-16T08:47:13;2.00;;;1.30;;
4726;SDS011;2377;51.734;8.950;2022-10-16T08:49:51;3.13;;;1.50;;
4726;SDS011;2377;51.734;8.950;2022-10-16T08:52:25;2.50;;;1.60;;
4726;SDS011;2377;51.734;8.950;2022-10-16T08:54:58;4.53;;;1.70;;
4726;SDS011;2377;51.734;8.950;2022-10-16T08:57:25;2.50;;;1.43;;
4726;SDS011;2377;51.734;8.950;2022-10-16T08:59:54;2.30;;;1.30;;
4726;SDS011;2377;51.734;8.950;2022-10-16T09:02:32;4.00;;;1.40;;
4726;SDS011;2377;51.734;8.950;2022-10-16T09:05:24;2.70;;;1.53;;
4726;SDS011;2377;51.734;8.950;2022-10-16T09:08:16;2.40;;;1.30;;
4726;SDS011;2377;51.734;8.950;2022-10-16T09:10:56;2.63;;;1.20;;
4726;SDS011;2377;51.734;8.950;2022-10-16T09:13:32;2.23;;;1.30;;
4726;SDS011;2377;51.734;8.950;2022-10-16T09:16:14;5.30;;;1.20;;
4726;SDS011;2377;51.734;8.950;2022-10-16T09:18:49;2.13;;;1.23;;
4726;SDS011;2377;51.734;8.950;2022-10-16T09:21:27;3.17;;;1.30;;
4726;SDS011;2377;51.734;8.950;2022-10-16T09:23:57;2.70;;;1.60;;
4726;SDS011;2377;51.734;8.950;2022-10-16T09:26:34;3.60;;;1.57;;
4726;SDS011;2377;51.734;8.950;2022-10-16T09:29:01;3.63;;;1.30;;
4726;SDS011;2377;51.734;8.950;2022-10-16T09:31:31;2.77;;;1.47;;
4726;SDS011;2377;51.734;8.950;2022-10-16T09:34:02;3.80;;;1.30;;
4726;SDS011;2377;51.734;8.950;2022-10-16T09:36:35;3.30;;;1.30;;
4726;SDS011;2377;51.734;8.950;2022-10-16T09:39:09;2.20;;;1.40;;
4726;SDS011;2377;51.734;8.950;2022-10-16T09:41:38;3.37;;;1.40;;
4726;SDS011;2377;51.734;8.950;2022-10-16T09:44:15;2.03;;;1.33;;
4726;SDS011;2377;51.734;8.950;2022-10-16T09:47:01;3.03;;;1.60;;
4726;SDS011;2377;51.734;8.950;2022-10-16T09:49:30;3.80;;;1.80;;
4726;SDS011;2377;51.734;8.950;2022-10-16T09:52:04;3.80;;;1.30;;
4726;SDS011;2377;51.734;8.950;2022-10-16T09:54:37;3.30;;;1.50;;
4726;SDS011;2377;51.734;8.950;2022-10-16T09:57:15;3.40;;;1.50;;
4726;SDS011;2377;51.734;8.950;2022-10-16T09:59:45;2.43;;;1.30;;
4726;SDS011;2377;51.734;8.950;2022-10-16T10:02:16;2.80;;;1.30;;
4726;SDS011;2377;51.734;8.950;2022-10-16T10:04:50;4.43;;;1.70;;
4726;SDS011;2377;51.734;8.950;2022-10-16T10:07:21;5.13;;;1.70;;
4726;SDS011;2377;51.734;8.950;2022-10-16T10:09:53;4.53;;;1.90;;
4726;SDS011;2377;51.734;8.950;2022-10-16T10:12:23;3.03;;;1.77;;
4726;SDS011;2377;51.734;8.950;2022-10-16T10:14:52;3.73;;;1.63;;
4726;SDS011;2377;51.734;8.950;2022-10-16T10:17:24;4.20;;;1.50;;
4726;SDS011;2377;51.734;8.950;2022-10-16T10:19:53;6.33;;;1.90;;
4726;SDS011;2377;51.734;8.950;2022-10-16T10:22:25;3.20;;;1.40;;
4726;SDS011;2377;51.734;8.950;2022-10-16T10:25:00;2.63;;;1.40;;
4726;SDS011;2377;51.734;8.950;2022-10-16T10:31:10;2.60;;;1.40;;
4726;SDS011;2377;51.734;8.950;2022-10-16T10:33:50;2.90;;;1.80;;
4726;SDS011;2377;51.734;8.950;2022-10-16T10:36:27;3.50;;;1.40;;
4726;SDS011;2377;51.734;8.950;2022-10-16T10:39:01;4.33;;;1.50;;
4726;SDS011;2377;51.734;8.950;2022-10-16T10:41:40;3.33;;;1.50;;
4726;SDS011;2377;51.734;8.950;2022-10-16T10:44:37;4.00;;;1.60;;
4726;SDS011;2377;51.734;8.950;2022-10-16T10:47:38;2.53;;;1.47;;
4726;SDS011;2377;51.734;8.950;2022-10-16T10:50:20;3.70;;;1.73;;
4726;SDS011;2377;51.734;8.950;2022-10-16T10:52:58;3.63;;;1.27;;
4726;SDS011;2377;51.734;8.950;2022-10-16T10:55:37;3.60;;;1.30;;
4726;SDS011;2377;51.734;8.950;2022-10-16T10:58:20;2.20;;;1.13;;
4726;SDS011;2377;51.734;8.950;2022-10-16T11:01:10;4.77;;;1.30;;
4726;SDS011;2377;51.734;8.950;2022-10-16T11:03:46;3.90;;;1.40;;
4726;SDS011;2377;51.734;8.950;2022-10-16T11:06:39;3.50;;;1.30;;
4726;SDS011;2377;51.734;8.950;2022-10-16T11:09:13;3.13;;;1.20;;
4726;SDS011;2377;51.734;8.950;2022-10-16T11:11:47;2.67;;;1.30;;
4726;SDS011;2377;51.734;8.950;2022-10-16T11:14:21;2.67;;;1.17;;
4726;SDS011;2377;51.734;8.950;2022-10-16T11:16:56;2.30;;;1.10;;
4726;SDS011;2377;51.734;8.950;2022-10-16T11:19:33;3.73;;;1.27;;
4726;SDS011;2377;51.734;8.950;2022-10-16T11:22:09;2.40;;;1.10;;
4726;SDS011;2377;51.734;8.950;2022-10-16T11:24:45;2.63;;;1.30;;
4726;SDS011;2377;51.734;8.950;2022-10-16T11:27:20;3.03;;;1.33;;
4726;SDS011;2377;51.734;8.950;2022-10-16T11:30:02;2.90;;;1.23;;
4726;SDS011;2377;51.734;8.950;2022-10-16T11:32:42;2.20;;;1.30;;
4726;SDS011;2377;51.734;8.950;2022-10-16T11:35:24;2.87;;;1.37;;
4726;SDS011;2377;51.734;8.950;2022-10-16T11:38:10;5.50;;;1.23;;
4726;SDS011;2377;51.734;8.950;2022-10-16T11:40:48;2.63;;;1.13;;
4726;SDS011;2377;51.734;8.950;2022-10-16T11:43:23;2.60;;;1.40;;
4726;SDS011;2377;51.734;8.950;2022-10-16T11:45:56;4.53;;;1.50;;
4726;SDS011;2377;51.734;8.950;2022-10-16T11:48:31;2.47;;;1.17;;
4726;SDS011;2377;51.734;8.950;2022-10-16T11:51:09;3.63;;;1.37;;
4726;SDS011;2377;51.734;8.950;2022-10-16T11:53:55;4.30;;;1.40;;
4726;SDS011;2377;51.734;8.950;2022-10-16T11:56:28;2.50;;;1.20;;
4726;SDS011;2377;51.734;8.950;2022-10-16T11:59:03;3.17;;;1.00;;
4726;SDS011;2377;51.734;8.950;2022-10-16T12:01:42;4.33;;;1.10;;
4726;SDS011;2377;51.734;8.950;2022-10-16T12:04:18;1.97;;;0.97;;
4726;SDS011;2377;51.734;8.950;2022-10-16T12:06:58;2.50;;;1.17;;
4726;SDS011;2377;51.734;8.950;2022-10-16T12:09:35;3.00;;;1.07;;
4726;SDS011;2377;51.734;8.950;2022-10-16T12:14:59;5.63;;;0.90;;
4726;SDS011;2377;51.734;8.950;2022-10-16T12:17:34;1.90;;;1.00;;
4726;SDS011;2377;51.734;8.950;2022-10-16T12:20:18;3.23;;;1.30;;
4726;SDS011;2377;51.734;8.950;2022-10-16T12:22:57;2.00;;;1.00;;
4726;SDS011;2377;51.734;8.950;2022-10-16T12:25:29;3.20;;;1.27;;
4726;SDS011;2377;51.734;8.950;2022-10-16T12:27:59;1.90;;;1.00;;
4726;SDS011;2377;51.734;8.950;2022-10-16T12:30:31;2.33;;;1.00;;
4726;SDS011;2377;51.734;8.950;2022-10-16T12:33:02;2.43;;;1.00;;
4726;SDS011;2377;51.734;8.950;2022-10-16T12:35:33;3.40;;;1.40;;
4726;SDS011;2377;51.734;8.950;2022-10-16T12:38:15;2.60;;;1.10;;
4726;SDS011;2377;51.734;8.950;2022-10-16T12:40:47;3.30;;;1.20;;
4726;SDS011;2377;51.734;8.950;2022-10-16T12:43:36;3.93;;;1.33;;
4726;SDS011;2377;51.734;8.950;2022-10-16T12:46:20;3.73;;;1.07;;
4726;SDS011;2377;51.734;8.950;2022-10-16T12:49:22;3.43;;;1.23;;
4726;SDS011;2377;51.734;8.950;2022-10-16T12:51:57;3.70;;;1.00;;
4726;SDS011;2377;51.734;8.950;2022-10-16T12:54:27;4.03;;;1.10;;
4726;SDS011;2377;51.734;8.950;2022-10-16T12:57:04;7.00;;;1.63;;
4726;SDS011;2377;51.734;8.950;2022-10-16T12:59:53;3.27;;;1.10;;
4726;SDS011;2377;51.734;8.950;2022-10-16T13:05:53;2.20;;;0.90;;
4726;SDS011;2377;51.734;8.950;2022-10-16T13:08:42;3.70;;;1.20;;
4726;SDS011;2377;51.734;8.950;2022-10-16T13:11:55;3.83;;;1.10;;
4726;SDS011;2377;51.734;8.950;2022-10-16T13:14:51;3.23;;;1.30;;
4726;SDS011;2377;51.734;8.950;2022-10-16T13:17:45;5.53;;;1.10;;
4726;SDS011;2377;51.734;8.950;2022-10-16T13:20:26;2.40;;;0.90;;
4726;SDS011;2377;51.734;8.950;2022-10-16T13:23:04;2.30;;;1.00;;
4726;SDS011;2377;51.734;8.950;2022-10-16T13:25:45;1.97;;;1.00;;
4726;SDS011;2377;51.734;8.950;2022-10-16T13:28:29;2.37;;;1.00;;
4726;SDS011;2377;51.734;8.950;2022-10-16T13:30:59;1.90;;;0.90;;
4726;SDS011;2377;51.734;8.950;2022-10-16T13:33:31;2.73;;;1.00;;
4726;SDS011;2377;51.734;8.950;2022-10-16T13:36:03;2.37;;;1.00;;
4726;SDS011;2377;51.734;8.950;2022-10-16T13:38:32;4.47;;;1.10;;
4726;SDS011;2377;51.734;8.950;2022-10-16T13:41:03;2.10;;;0.90;;
4726;SDS011;2377;51.734;8.950;2022-10-16T13:43:34;3.10;;;1.00;;
4726;SDS011;2377;51.734;8.950;2022-10-16T13:46:06;6.10;;;1.00;;
4726;SDS011;2377;51.734;8.950;2022-10-16T13:48:39;2.67;;;1.07;;
4726;SDS011;2377;51.734;8.950;2022-10-16T13:51:11;3.00;;;1.03;;
4726;SDS011;2377;51.734;8.950;2022-10-16T13:53:41;3.20;;;1.07;;
4726;SDS011;2377;51.734;8.950;2022-10-16T13:56:10;3.70;;;1.10;;
4726;SDS011;2377;51.734;8.950;2022-10-16T13:58:42;2.20;;;0.90;;
4726;SDS011;2377;51.734;8.950;2022-10-16T14:01:15;5.53;;;1.00;;
4726;SDS011;2377;51.734;8.950;2022-10-16T14:03:46;9.00;;;1.27;;
4726;SDS011;2377;51.734;8.950;2022-10-16T14:06:16;2.60;;;0.97;;
4726;SDS011;2377;51.734;8.950;2022-10-16T14:08:48;2.37;;;0.90;;
4726;SDS011;2377;51.734;8.950;2022-10-16T14:11:25;2.33;;;1.00;;
4726;SDS011;2377;51.734;8.950;2022-10-16T14:13:54;2.50;;;0.87;;
4726;SDS011;2377;51.734;8.950;2022-10-16T14:16:23;3.07;;;1.00;;
4726;SDS011;2377;51.734;8.950;2022-10-16T14:18:57;3.40;;;0.80;;
4726;SDS011;2377;51.734;8.950;2022-10-16T14:21:27;2.20;;;1.10;;
4726;SDS011;2377;51.734;8.950;2022-10-16T14:23:55;2.07;;;0.83;;
4726;SDS011;2377;51.734;8.950;2022-10-16T14:26:23;5.30;;;1.10;;
4726;SDS011;2377;51.734;8.950;2022-10-16T14:29:10;2.70;;;1.00;;
4726;SDS011;2377;51.734;8.950;2022-10-16T14:31:40;1.93;;;0.90;;
4726;SDS011;2377;51.734;8.950;2022-10-16T14:34:28;2.03;;;0.83;;
4726;SDS011;2377;51.734;8.950;2022-10-16T14:36:58;2.57;;;1.00;;
4726;SDS011;2377;51.734;8.950;2022-10-16T14:39:32;1.90;;;0.83;;
4726;SDS011;2377;51.734;8.950;2022-10-16T14:42:00;2.13;;;1.00;;
4726;SDS011;2377;51.734;8.950;2022-10-16T14:44:29;2.17;;;0.80;;
4726;SDS011;2377;51.734;8.950;2022-10-16T14:47:06;2.80;;;1.10;;
4726;SDS011;2377;51.734;8.950;2022-10-16T14:49:39;1.90;;;0.90;;
4726;SDS011;2377;51.734;8.950;2022-10-16T14:52:08;3.83;;;1.03;;
4726;SDS011;2377;51.734;8.950;2022-10-16T14:54:37;3.83;;;1.30;;
4726;SDS011;2377;51.734;8.950;2022-10-16T14:57:05;2.70;;;1.00;;
4726;SDS011;2377;51.734;8.950;2022-10-16T14:59:45;3.17;;;1.20;;
4726;SDS011;2377;51.734;8.950;2022-10-16T15:02:18;6.33;;;1.20;;
4726;SDS011;2377;51.734;8.950;2022-10-16T15:04:54;3.40;;;0.97;;
4726;SDS011;2377;51.734;8.950;2022-10-16T15:07:22;2.77;;;1.00;;
4726;SDS011;2377;51.734;8.950;2022-10-16T15:09:49;2.00;;;0.80;;
4726;SDS011;2377;51.734;8.950;2022-10-16T15:12:17;2.03;;;1.00;;
4726;SDS011;2377;51.734;8.950;2022-10-16T15:14:46;2.60;;;1.00;;
4726;SDS011;2377;51.734;8.950;2022-10-16T15:17:13;1.90;;;0.93;;
4726;SDS011;2377;51.734;8.950;2022-10-16T15:19:40;2.70;;;0.83;;
4726;SDS011;2377;51.734;8.950;2022-10-16T15:22:08;1.97;;;0.83;;
4726;SDS011;2377;51.734;8.950;2022-10-16T15:24:37;2.03;;;1.00;;
4726;SDS011;2377;51.734;8.950;2022-10-16T15:27:04;3.07;;;1.00;;
4726;SDS011;2377;51.734;8.950;2022-10-16T15:29:31;4.80;;;0.90;;
4726;SDS011;2377;51.734;8.950;2022-10-16T15:31:59;2.30;;;1.00;;
4726;SDS011;2377;51.734;8.950;2022-10-16T15:34:27;2.10;;;0.93;;
4726;SDS011;2377;51.734;8.950;2022-10-16T15:36:54;2.20;;;0.90;;
4726;SDS011;2377;51.734;8.950;2022-10-16T15:39:22;2.50;;;0.90;;
4726;SDS011;2377;51.734;8.950;2022-10-16T15:41:50;2.57;;;1.00;;
4726;SDS011;2377;51.734;8.950;2022-10-16T15:44:18;2.00;;;0.80;;
4726;SDS011;2377;51.734;8.950;2022-10-16T15:46:47;5.57;;;1.03;;
4726;SDS011;2377;51.734;8.950;2022-10-16T15:49:16;2.50;;;1.00;;
4726;SDS011;2377;51.734;8.950;2022-10-16T15:51:43;6.83;;;1.23;;
4726;SDS011;2377;51.734;8.950;2022-10-16T15:54:11;2.93;;;1.00;;